Time;durP1;ratioP1;P1;durP2;ratioP2;P2;SDS_P1;SDS_P2;PMS_P1;PMS_P2;Temp;Humidity;BMP_temperature;BMP_pressure;BME280_temperature;BME280_humidity;BME280_pressure;Samples;Min_cycle;Max_cycle;Signal;HPM_P1;HPM_P2
2021/10/24 00:00:09;;;;;;;14.30;6.57;;;5.30;99.90;;;;;;5031857;28;20691;-58
2021/10/24 00:02:37;;;;;;;10.10;6.37;;;5.30;99.90;;;;;;5032285;28;20226;-61
2021/10/24 00:05:04;;;;;;;10.47;6.00;;;5.30;99.90;;;;;;5031671;28;20229;-60
2021/10/24 00:07:31;;;;;;;10.23;5.83;;;5.30;99.90;;;;;;5032376;28;20632;-60
2021/10/24 00:09:57;;;;;;;11.07;6.40;;;5.30;99.90;;;;;;5031705;28;20204;-60
2021/10/24 00:12:25;;;;;;;8.97;5.40;;;5.40;99.90;;;;;;5031669;28;20699;-61
2021/10/24 00:14:53;;;;;;;8.20;5.60;;;5.40;99.90;;;;;;5032167;28;20790;-58
2021/10/24 00:17:20;;;;;;;8.50;6.17;;;5.50;99.90;;;;;;5032161;28;20721;-60
2021/10/24 00:19:47;;;;;;;15.50;6.63;;;5.50;99.90;;;;;;5032525;28;20206;-60
2021/10/24 00:22:13;;;;;;;10.50;6.03;;;5.50;88.90;;;;;;5032249;28;20224;-60
2021/10/24 00:24:40;;;;;;;8.87;5.57;;;5.60;44.70;;;;;;5031522;28;20206;-60
2021/10/24 00:27:07;;;;;;;8.50;5.43;;;5.60;31.50;;;;;;5031712;28;20206;-57
2021/10/24 00:29:33;;;;;;;15.53;6.47;;;5.60;20.10;;;;;;5032078;28;20202;-59
2021/10/24 00:32:01;;;;;;;7.10;5.30;;;5.70;2.20;;;;;;5030827;28;20238;-58
2021/10/24 00:34:28;;;;;;;7.77;4.70;;;5.70;2.00;;;;;;5031984;28;20202;-60
2021/10/24 00:36:54;;;;;;;9.77;5.53;;;5.70;2.00;;;;;;5030876;28;20272;-58
2021/10/24 00:39:21;;;;;;;9.50;5.23;;;5.70;1.00;;;;;;5029906;28;20826;-60
2021/10/24 00:41:48;;;;;;;6.50;4.80;;;5.70;1.00;;;;;;5030017;28;20242;-61
2021/10/24 00:44:21;;;;;;;10.60;4.90;;;5.70;1.00;;;;;;5030239;28;20240;-58
2021/10/24 00:46:48;;;;;;;7.47;5.33;;;5.80;1.00;;;;;;5031487;28;20206;-61
2021/10/24 00:49:16;;;;;;;8.47;5.20;;;5.80;1.00;;;;;;5031179;28;20205;-60
2021/10/24 00:51:43;;;;;;;9.70;5.57;;;5.80;1.00;;;;;;5030841;28;20234;-60
2021/10/24 00:54:13;;;;;;;6.93;4.60;;;5.80;1.00;;;;;;5031761;28;20214;-59
2021/10/24 00:56:42;;;;;;;8.23;5.20;;;5.80;1.00;;;;;;5030728;28;20683;-60
2021/10/24 00:59:09;;;;;;;9.30;6.03;;;5.80;1.00;;;;;;5031754;28;20289;-60
2021/10/24 01:01:36;;;;;;;8.97;5.13;;;5.80;1.00;;;;;;5030926;28;20237;-61
2021/10/24 01:04:04;;;;;;;9.97;5.00;;;5.80;1.00;;;;;;5031746;28;20214;-60
2021/10/24 01:06:33;;;;;;;8.90;5.03;;;5.80;1.00;;;;;;5030987;28;20210;-60
2021/10/24 01:08:59;;;;;;;12.80;5.50;;;5.80;1.00;;;;;;5030741;28;20257;-58
2021/10/24 01:11:28;;;;;;;8.83;4.87;;;5.80;1.00;;;;;;5030709;28;20288;-61
2021/10/24 01:13:55;;;;;;;8.83;5.33;;;5.80;1.00;;;;;;5031278;28;20297;-60
2021/10/24 01:16:22;;;;;;;6.57;4.90;;;5.80;1.00;;;;;;5030904;28;20634;-60
2021/10/24 01:18:49;;;;;;;8.57;4.90;;;5.80;1.00;;;;;;5030439;28;20206;-61
2021/10/24 01:21:18;;;;;;;10.03;5.60;;;5.80;1.00;;;;;;5031597;28;20230;-58
2021/10/24 01:23:45;;;;;;;10.00;5.70;;;5.80;1.00;;;;;;5030702;28;20206;-60
2021/10/24 01:26:13;;;;;;;9.57;4.93;;;5.80;1.00;;;;;;5031115;28;20256;-60
2021/10/24 01:28:40;;;;;;;8.43;4.80;;;5.80;1.00;;;;;;5030774;28;20266;-61
2021/10/24 01:31:06;;;;;;;8.50;5.40;;;5.80;1.00;;;;;;5031158;28;20722;-58
2021/10/24 01:33:33;;;;;;;7.57;5.03;;;5.80;1.00;;;;;;5030535;28;20211;-60
2021/10/24 01:36:02;;;;;;;9.53;5.17;;;5.80;1.00;;;;;;5030538;28;20257;-61
2021/10/24 01:38:31;;;;;;;6.87;4.73;;;5.80;2.00;;;;;;5031415;28;20232;-61
2021/10/24 01:40:58;;;;;;;8.60;4.67;;;5.80;2.00;;;;;;5030911;28;20234;-61
2021/10/24 01:43:27;;;;;;;6.43;4.80;;;5.80;1.00;;;;;;5030980;28;20210;-60
2021/10/24 01:45:54;;;;;;;8.33;5.30;;;5.80;1.00;;;;;;5032647;28;20213;-60
2021/10/24 01:48:21;;;;;;;7.57;4.90;;;5.80;1.00;;;;;;5035206;28;20559;-58
2021/10/24 01:50:50;;;;;;;9.30;5.40;;;5.80;2.10;;;;;;5034181;28;20226;-60
2021/10/24 01:53:17;;;;;;;10.73;5.20;;;5.80;1.00;;;;;;5034669;28;20765;-60
2021/10/24 01:55:45;;;;;;;7.83;5.27;;;5.80;2.00;;;;;;5034052;28;20219;-61
2021/10/24 01:58:13;;;;;;;7.30;5.30;;;5.80;2.10;;;;;;5034830;28;20230;-60
2021/10/24 02:00:40;;;;;;;7.33;4.83;;;5.80;3.10;;;;;;5033619;28;20234;-59
2021/10/24 02:03:06;;;;;;;8.83;5.07;;;5.70;26.20;;;;;;5034742;28;20267;-60
2021/10/24 02:05:33;;;;;;;9.23;4.63;;;5.80;16.20;;;;;;5034475;28;20218;-60
2021/10/24 02:08:00;;;;;;;7.00;5.17;;;5.80;20.90;;;;;;5034519;28;20264;-60
2021/10/24 02:10:26;;;;;;;16.90;4.60;;;5.70;24.30;;;;;;5034244;28;20206;-58
2021/10/24 02:12:54;;;;;;;10.43;5.20;;;5.70;21.70;;;;;;5033599;28;20214;-59
2021/10/24 02:15:21;;;;;;;7.83;4.77;;;5.70;29.10;;;;;;5034147;28;20203;-60
2021/10/24 02:17:48;;;;;;;8.37;4.70;;;5.70;44.70;;;;;;5034229;28;20276;-60
2021/10/24 02:20:15;;;;;;;5.20;4.53;;;5.70;49.60;;;;;;5033643;28;20666;-58
2021/10/24 02:22:42;;;;;;;7.40;4.63;;;5.70;54.10;;;;;;5033469;28;20697;-58
2021/10/24 02:25:10;;;;;;;8.50;4.80;;;5.70;59.40;;;;;;5034120;28;20603;-59
2021/10/24 02:27:37;;;;;;;8.03;4.67;;;5.70;69.00;;;;;;5034137;28;20206;-61
2021/10/24 02:30:07;;;;;;;7.90;4.60;;;5.80;46.50;;;;;;5034590;28;20298;-60
2021/10/24 02:32:34;;;;;;;8.67;4.47;;;5.80;43.40;;;;;;5034191;28;20231;-60
2021/10/24 02:35:01;;;;;;;8.33;4.80;;;5.80;48.80;;;;;;5034048;28;20218;-60
2021/10/24 02:37:28;;;;;;;9.10;4.57;;;5.80;50.50;;;;;;5033875;28;20280;-61
2021/10/24 02:39:55;;;;;;;7.67;4.70;;;5.80;50.40;;;;;;5032527;28;20669;-61
2021/10/24 02:42:21;;;;;;;8.37;4.57;;;5.80;42.20;;;;;;5032904;28;20584;-60
2021/10/24 02:44:48;;;;;;;8.20;4.10;;;5.80;46.80;;;;;;5033770;28;20633;-60
2021/10/24 02:47:17;;;;;;;6.47;4.13;;;5.90;38.30;;;;;;5034155;28;20210;-61
2021/10/24 02:49:44;;;;;;;7.60;4.40;;;5.90;47.80;;;;;;5034009;28;20213;-61
2021/10/24 02:52:11;;;;;;;8.17;5.03;;;5.90;46.50;;;;;;5034077;28;20230;-60
2021/10/24 02:54:37;;;;;;;7.50;4.73;;;5.90;43.70;;;;;;5032592;28;20210;-61
2021/10/24 02:57:05;;;;;;;8.27;4.60;;;5.90;47.70;;;;;;5032676;28;20233;-61
2021/10/24 02:59:32;;;;;;;8.67;5.13;;;5.80;57.90;;;;;;5033815;28;20304;-61
2021/10/24 03:01:58;;;;;;;7.17;5.03;;;5.80;76.30;;;;;;5033594;28;20349;-61
2021/10/24 03:04:27;;;;;;;7.60;4.73;;;5.80;92.70;;;;;;5033011;28;20206;-61
2021/10/24 03:06:53;;;;;;;8.90;4.93;;;5.80;99.90;;;;;;5032736;28;20217;-58
2021/10/24 03:09:21;;;;;;;8.23;5.17;;;5.80;99.90;;;;;;5033252;28;20241;-59
2021/10/24 03:11:47;;;;;;;12.43;5.87;;;5.80;99.90;;;;;;5033484;28;20264;-61
2021/10/24 03:14:14;;;;;;;8.80;5.53;;;5.80;99.90;;;;;;5032481;28;20205;-61
2021/10/24 03:16:41;;;;;;;8.90;5.37;;;5.70;99.90;;;;;;5032142;28;20685;-61
2021/10/24 03:19:09;;;;;;;11.77;6.43;;;5.80;99.90;;;;;;5032923;28;20264;-60
2021/10/24 03:21:37;;;;;;;8.73;5.40;;;5.70;99.90;;;;;;5033320;28;20227;-60
2021/10/24 03:24:05;;;;;;;7.13;5.50;;;5.70;99.90;;;;;;5033225;28;20224;-60
2021/10/24 03:26:32;;;;;;;8.63;4.97;;;5.70;99.90;;;;;;5033314;28;20301;-61
2021/10/24 03:28:59;;;;;;;9.37;5.40;;;5.70;99.90;;;;;;5033679;28;20260;-58
2021/10/24 03:31:25;;;;;;;11.57;5.30;;;5.60;99.90;;;;;;5033245;28;20226;-60
2021/10/24 03:33:52;;;;;;;13.00;6.07;;;5.60;99.90;;;;;;5033586;28;20264;-58
2021/10/24 03:36:19;;;;;;;9.93;5.53;;;5.60;99.90;;;;;;5032600;28;20561;-59
2021/10/24 03:38:47;;;;;;;8.00;6.03;;;5.60;99.90;;;;;;5032422;28;20240;-61
2021/10/24 03:41:14;;;;;;;13.17;5.90;;;5.50;99.90;;;;;;5032098;28;20272;-61
2021/10/24 03:43:41;;;;;;;10.90;5.70;;;5.50;99.90;;;;;;5032943;28;20206;-60
2021/10/24 03:46:08;;;;;;;8.17;5.50;;;5.50;99.90;;;;;;5032438;28;20208;-58
2021/10/24 03:48:35;;;;;;;12.13;6.43;;;5.50;99.90;;;;;;5032203;28;20709;-60
2021/10/24 03:51:02;;;;;;;9.87;5.73;;;5.40;1.00;;;;;;5031806;28;20283;-59
2021/10/24 03:53:28;;;;;;;10.50;6.13;;;5.40;1.00;;;;;;5032920;28;20213;-61
2021/10/24 03:55:56;;;;;;;13.47;8.07;;;5.40;1.00;;;;;;5032624;28;20252;-60
2021/10/24 03:58:23;;;;;;;16.70;9.00;;;5.40;1.00;;;;;;5032139;28;20233;-61
2021/10/24 04:00:50;;;;;;;13.50;6.57;;;5.40;1.00;;;;;;5032517;28;20227;-61
2021/10/24 04:03:16;;;;;;;16.83;6.20;;;5.40;1.00;;;;;;5031734;28;20243;-61
2021/10/24 04:05:47;;;;;;;11.53;5.83;;;5.30;7.00;;;;;;5032334;28;20212;-60
2021/10/24 04:08:14;;;;;;;10.33;5.70;;;5.30;40.70;;;;;;5031671;28;20208;-61
2021/10/24 04:10:40;;;;;;;10.33;5.70;;;5.30;58.20;;;;;;5032229;28;20261;-60
2021/10/24 04:13:08;;;;;;;9.93;5.97;;;5.30;69.60;;;;;;5031360;28;20217;-59
2021/10/24 04:15:35;;;;;;;9.47;6.33;;;5.20;90.00;;;;;;5032159;28;20214;-61
2021/10/24 04:18:02;;;;;;;10.23;6.00;;;5.20;94.70;;;;;;5032310;28;20230;-58
2021/10/24 04:20:28;;;;;;;12.17;6.10;;;5.20;92.80;;;;;;5032351;28;20220;-58
2021/10/24 04:22:55;;;;;;;11.90;6.50;;;5.20;99.90;;;;;;5032168;28;20630;-59
2021/10/24 04:25:25;;;;;;;10.37;6.10;;;5.10;99.90;;;;;;5031544;28;20300;-61
2021/10/24 04:27:51;;;;;;;11.70;7.10;;;5.10;99.90;;;;;;5032049;28;20216;-61
2021/10/24 04:30:19;;;;;;;14.57;7.00;;;5.10;99.90;;;;;;5030717;28;20208;-60
2021/10/24 04:32:46;;;;;;;10.67;6.27;;;5.10;99.90;;;;;;5031265;28;20293;-61
2021/10/24 04:35:14;;;;;;;9.77;5.87;;;5.10;99.90;;;;;;5031687;28;20213;-59
2021/10/24 04:37:41;;;;;;;10.20;6.20;;;5.10;99.90;;;;;;5030993;28;20230;-57
2021/10/24 04:40:09;;;;;;;12.13;6.07;;;5.10;99.90;;;;;;5032251;28;20202;-60
2021/10/24 04:42:37;;;;;;;10.47;5.97;;;5.00;99.90;;;;;;5031889;28;20245;-61
2021/10/24 04:45:05;;;;;;;11.10;6.00;;;5.00;99.90;;;;;;5030537;28;20214;-59
2021/10/24 04:47:33;;;;;;;10.23;6.30;;;5.00;99.90;;;;;;5031163;28;20752;-59
2021/10/24 04:50:00;;;;;;;9.90;5.97;;;5.00;99.90;;;;;;5031514;28;20207;-61
2021/10/24 04:52:27;;;;;;;15.03;6.20;;;5.00;99.90;;;;;;5031791;28;20286;-60
2021/10/24 04:54:53;;;;;;;12.33;5.97;;;4.90;99.90;;;;;;5031789;28;20206;-61
2021/10/24 04:57:21;;;;;;;10.67;5.60;;;4.90;99.90;;;;;;5031844;28;20256;-60
2021/10/24 04:59:47;;;;;;;8.73;5.50;;;4.90;99.90;;;;;;5031537;28;20209;-60
2021/10/24 05:02:14;;;;;;;7.63;6.20;;;4.90;99.90;;;;;;5031951;28;20236;-60
2021/10/24 05:04:42;;;;;;;9.47;5.63;;;4.90;99.90;;;;;;5031557;28;20212;-56
2021/10/24 05:07:08;;;;;;;12.27;5.87;;;4.90;99.90;;;;;;5031940;28;20619;-60
2021/10/24 05:09:35;;;;;;;13.50;5.97;;;4.90;99.90;;;;;;5030280;28;20242;-60
2021/10/24 05:12:02;;;;;;;10.37;6.00;;;4.80;99.90;;;;;;5030754;28;20232;-60
2021/10/24 05:14:28;;;;;;;15.20;6.27;;;4.80;99.90;;;;;;5031039;28;20628;-61
2021/10/24 05:16:55;;;;;;;12.03;6.40;;;4.80;99.90;;;;;;5031461;28;20676;-58
2021/10/24 05:19:22;;;;;;;9.67;6.27;;;4.80;99.90;;;;;;5032983;28;20256;-60
2021/10/24 05:21:50;;;;;;;12.73;5.80;;;4.80;99.90;;;;;;5034983;28;20306;-60
2021/10/24 05:24:17;;;;;;;11.97;5.70;;;4.70;99.90;;;;;;5035232;28;20295;-58
2021/10/24 05:26:45;;;;;;;14.80;5.57;;;4.70;99.90;;;;;;5035226;28;20786;-57
2021/10/24 05:29:12;;;;;;;10.40;5.13;;;4.70;99.90;;;;;;5035766;28;20622;-58
2021/10/24 05:31:39;;;;;;;10.10;5.17;;;4.70;99.90;;;;;;5035570;28;20228;-60
2021/10/24 05:34:06;;;;;;;10.70;5.87;;;4.70;99.90;;;;;;5035677;28;20254;-59
2021/10/24 05:36:32;;;;;;;8.90;6.33;;;4.70;99.90;;;;;;5035089;28;20211;-60
2021/10/24 05:39:01;;;;;;;14.93;5.60;;;4.60;99.90;;;;;;5035318;28;20719;-60
2021/10/24 05:41:27;;;;;;;10.83;5.10;;;4.60;99.90;;;;;;5035222;28;20319;-58
2021/10/24 05:43:55;;;;;;;12.37;5.40;;;4.50;99.90;;;;;;5035207;28;20303;-60
2021/10/24 05:46:22;;;;;;;9.47;5.73;;;4.50;99.90;;;;;;5034592;28;20299;-58
2021/10/24 05:48:50;;;;;;;10.53;6.30;;;4.50;99.90;;;;;;5034310;28;20600;-60
2021/10/24 05:51:17;;;;;;;9.20;5.70;;;4.50;99.90;;;;;;5035164;28;20224;-60
2021/10/24 05:53:43;;;;;;;13.77;5.90;;;4.40;99.90;;;;;;5034296;28;20214;-60
2021/10/24 05:56:11;;;;;;;11.90;6.23;;;4.40;1.00;;;;;;5034672;28;20211;-60
2021/10/24 05:58:38;;;;;;;10.57;5.90;;;4.40;1.00;;;;;;5034216;28;20285;-60
2021/10/24 06:01:05;;;;;;;11.70;6.77;;;4.40;1.00;;;;;;5034815;28;20670;-60
2021/10/24 06:03:31;;;;;;;10.33;5.57;;;4.40;1.00;;;;;;5034458;28;20639;-60
2021/10/24 06:05:58;;;;;;;13.17;6.10;;;4.40;1.00;;;;;;5034225;28;20216;-60
2021/10/24 06:08:25;;;;;;;12.00;6.03;;;4.40;1.00;;;;;;5033826;28;20216;-59
2021/10/24 06:10:54;;;;;;;13.00;6.10;;;4.40;1.00;;;;;;5034752;28;20261;-60
2021/10/24 06:13:22;;;;;;;11.30;6.13;;;4.40;43.90;;;;;;5034927;28;20248;-58
2021/10/24 06:15:49;;;;;;;13.70;6.17;;;4.40;99.90;;;;;;5034196;28;20676;-58
2021/10/24 06:18:17;;;;;;;12.30;6.00;;;4.40;99.90;;;;;;5033814;28;20225;-61
2021/10/24 06:20:43;;;;;;;10.57;6.10;;;4.40;99.90;;;;;;5033025;28;20290;-60
2021/10/24 06:23:10;;;;;;;9.03;5.83;;;4.40;99.90;;;;;;5034515;28;20689;-60
2021/10/24 06:25:37;;;;;;;10.90;6.10;;;4.40;99.90;;;;;;5033392;28;20210;-60
2021/10/24 06:28:04;;;;;;;8.70;5.37;;;4.40;99.90;;;;;;5034598;28;20209;-60
2021/10/24 06:30:32;;;;;;;10.23;5.07;;;4.40;56.30;;;;;;5032574;28;20212;-60
2021/10/24 06:32:59;;;;;;;12.53;5.60;;;4.50;21.70;;;;;;5033898;28;20270;-60
2021/10/24 06:35:26;;;;;;;8.47;5.57;;;4.50;1.00;;;;;;5033622;28;20202;-60
2021/10/24 06:37:52;;;;;;;10.57;5.97;;;4.50;1.00;;;;;;5033958;28;20722;-60
2021/10/24 06:40:19;;;;;;;11.53;5.30;;;4.50;1.00;;;;;;5032864;28;20210;-58
2021/10/24 06:42:46;;;;;;;12.43;6.10;;;4.50;1.00;;;;;;5032989;28;20629;-60
2021/10/24 06:45:13;;;;;;;9.07;5.73;;;4.50;1.00;;;;;;5032821;28;20263;-61
2021/10/24 06:47:41;;;;;;;7.57;5.73;;;4.50;99.90;;;;;;5033167;28;20208;-58
2021/10/24 06:50:09;;;;;;;8.23;5.40;;;4.50;99.90;;;;;;5032989;28;20208;-58
2021/10/24 06:52:36;;;;;;;13.30;5.40;;;4.40;99.90;;;;;;5033279;28;20228;-58
2021/10/24 06:55:04;;;;;;;12.40;5.63;;;4.40;99.90;;;;;;5033697;28;20212;-60
2021/10/24 06:57:33;;;;;;;10.67;6.30;;;4.40;99.90;;;;;;5033550;28;20268;-58
2021/10/24 07:00:00;;;;;;;8.77;5.67;;;4.40;1.00;;;;;;5033432;28;20208;-57
2021/10/24 07:02:27;;;;;;;14.77;6.33;;;4.30;1.00;;;;;;5032630;28;20226;-53
2021/10/24 07:04:55;;;;;;;10.87;6.30;;;4.40;45.10;;;;;;5033443;28;20234;-60
2021/10/24 07:07:23;;;;;;;12.03;7.13;;;4.30;99.90;;;;;;5033377;28;20680;-56
2021/10/24 07:09:50;;;;;;;11.67;6.80;;;4.30;99.90;;;;;;5033973;28;20222;-58
2021/10/24 07:12:17;;;;;;;13.57;7.93;;;4.40;1.00;;;;;;5032940;28;20273;-61
2021/10/24 07:14:44;;;;;;;14.40;7.30;;;4.40;1.00;;;;;;5032446;28;20212;-60
2021/10/24 07:17:10;;;;;;;12.47;7.43;;;4.40;1.00;;;;;;5032705;28;20246;-58
2021/10/24 07:19:37;;;;;;;11.10;6.60;;;4.50;1.00;;;;;;5032557;28;20917;-60
2021/10/24 07:22:05;;;;;;;11.43;6.27;;;4.60;1.00;;;;;;5033473;28;20278;-60
2021/10/24 07:24:31;;;;;;;10.93;6.30;;;4.70;1.00;;;;;;5033393;28;20591;-60
2021/10/24 07:26:58;;;;;;;9.83;6.23;;;4.80;99.90;;;;;;5033397;28;20254;-61
2021/10/24 07:29:25;;;;;;;10.43;6.07;;;4.80;99.90;;;;;;5032411;28;20800;-61
2021/10/24 07:31:52;;;;;;;11.77;6.40;;;4.80;1.00;;;;;;5032575;28;20649;-60
2021/10/24 07:34:19;;;;;;;13.53;9.47;;;4.80;1.00;;;;;;5031928;28;20213;-60
2021/10/24 07:36:46;;;;;;;13.80;8.17;;;4.90;99.90;;;;;;5018472;28;20213;-58
2021/10/24 07:39:14;;;;;;;10.53;7.67;;;5.00;99.90;;;;;;5012452;28;20718;-56
2021/10/24 07:41:40;;;;;;;12.57;7.17;;;5.00;99.90;;;;;;5013026;28;20289;-56
2021/10/24 07:44:07;;;;;;;11.60;6.10;;;5.10;99.90;;;;;;5013226;28;20257;-57
2021/10/24 07:46:34;;;;;;;11.00;6.00;;;5.20;99.90;;;;;;5012980;28;20304;-59
2021/10/24 07:49:01;;;;;;;7.67;5.67;;;5.20;99.90;;;;;;5013317;28;20236;-57
2021/10/24 07:51:27;;;;;;;9.47;5.53;;;5.30;99.90;;;;;;5013175;28;20288;-56
2021/10/24 07:53:54;;;;;;;11.30;5.20;;;5.40;73.10;;;;;;5013300;28;20217;-58
2021/10/24 07:56:23;;;;;;;10.47;5.30;;;5.50;6.10;;;;;;5013105;28;20588;-60
2021/10/24 07:58:49;;;;;;;7.67;4.43;;;5.70;1.00;;;;;;5012757;28;20238;-59
2021/10/24 08:01:16;;;;;;;8.27;4.43;;;5.80;99.90;;;;;;5013164;28;20223;-60
2021/10/24 08:03:44;;;;;;;9.00;4.40;;;5.90;99.90;;;;;;5013136;28;20253;-58
2021/10/24 08:06:11;;;;;;;9.63;4.33;;;6.10;99.90;;;;;;5012808;28;20214;-58
2021/10/24 08:08:38;;;;;;;6.03;3.43;;;6.30;41.30;;;;;;5013102;28;20203;-58
2021/10/24 08:11:05;;;;;;;10.23;3.90;;;6.50;1.00;;;;;;5012983;28;20234;-58
2021/10/24 08:13:33;;;;;;;8.27;4.10;;;6.60;1.00;;;;;;5012665;28;20214;-58
2021/10/24 08:16:00;;;;;;;7.10;3.93;;;6.70;1.00;;;;;;5012413;28;20211;-59
2021/10/24 08:18:27;;;;;;;8.47;4.00;;;6.80;1.00;;;;;;5012564;28;20600;-58
2021/10/24 08:20:53;;;;;;;8.57;3.70;;;6.80;1.00;;;;;;5012466;28;20277;-57
2021/10/24 08:23:20;;;;;;;6.80;3.80;;;7.00;1.00;;;;;;5012593;28;20211;-57
2021/10/24 08:25:49;;;;;;;6.43;4.53;;;7.20;1.00;;;;;;5011894;28;20207;-55
2021/10/24 08:28:16;;;;;;;7.27;4.40;;;7.20;1.00;;;;;;5012844;28;20314;-58
2021/10/24 08:30:44;;;;;;;8.77;4.23;;;7.30;1.00;;;;;;5012509;28;20227;-58
2021/10/24 08:33:12;;;;;;;6.30;3.50;;;7.40;1.00;;;;;;5012542;28;20702;-58
2021/10/24 08:35:39;;;;;;;7.90;3.50;;;7.50;1.00;;;;;;5011689;28;20687;-59
2021/10/24 08:38:06;;;;;;;8.07;3.83;;;7.70;1.00;;;;;;5012411;28;20219;-56
2021/10/24 08:40:32;;;;;;;5.77;3.57;;;7.70;1.00;;;;;;5012137;28;20215;-59
2021/10/24 08:43:03;;;;;;;9.33;3.67;;;7.80;1.00;;;;;;5012786;28;20629;-61
2021/10/24 08:45:30;;;;;;;6.30;3.13;;;7.80;1.00;;;;;;5012034;28;20679;-59
2021/10/24 08:47:58;;;;;;;7.03;3.30;;;7.90;1.00;;;;;;5012505;28;20211;-59
2021/10/24 08:50:25;;;;;;;6.60;3.40;;;8.00;1.00;;;;;;5012289;28;20219;-59
2021/10/24 08:52:53;;;;;;;7.67;3.57;;;8.10;1.00;;;;;;5012057;28;20286;-59
2021/10/24 08:55:20;;;;;;;6.60;3.50;;;8.30;1.00;;;;;;5011552;28;20216;-59
2021/10/24 08:57:49;;;;;;;7.30;3.47;;;8.40;1.00;;;;;;5012453;28;20214;-59
2021/10/24 09:00:16;;;;;;;9.00;3.43;;;8.60;1.00;;;;;;5012274;28;20231;-60
2021/10/24 09:02:56;;;;;;;7.23;3.10;;;8.70;1.00;;;;;;5012396;28;20257;-60
2021/10/24 09:05:36;;;;;;;9.43;3.60;;;8.70;1.00;;;;;;5011933;28;20206;-58
2021/10/24 09:08:03;;;;;;;3.83;2.80;;;8.80;1.00;;;;;;5012464;28;20225;-58
2021/10/24 09:10:39;;;;;;;5.23;2.97;;;8.90;1.00;;;;;;5012176;28;20204;-60
2021/10/24 09:13:08;;;;;;;4.97;2.77;;;9.00;1.00;;;;;;5012249;28;20219;-60
2021/10/24 09:15:51;;;;;;;6.50;2.60;;;9.10;1.00;;;;;;5011737;28;20272;-60
2021/10/24 09:18:19;;;;;;;8.37;2.60;;;9.20;1.00;;;;;;5012034;28;20221;-60
2021/10/24 09:20:47;;;;;;;6.20;2.73;;;9.30;1.00;;;;;;5012096;28;20225;-60
2021/10/24 09:23:15;;;;;;;5.17;2.60;;;9.40;1.00;;;;;;5012144;28;20210;-59
2021/10/24 09:25:51;;;;;;;4.73;2.70;;;9.40;1.00;;;;;;5011696;28;20217;-59
2021/10/24 09:28:20;;;;;;;4.57;2.57;;;9.50;1.00;;;;;;5012174;28;20627;-59
2021/10/24 09:30:47;;;;;;;5.30;2.67;;;9.70;1.00;;;;;;5011857;28;20262;-60
2021/10/24 09:33:17;;;;;;;5.17;2.63;;;9.70;1.00;;;;;;5012107;28;20215;-60
2021/10/24 09:35:47;;;;;;;7.70;3.23;;;9.80;1.00;;;;;;5011816;28;20207;-59
2021/10/24 09:38:16;;;;;;;3.17;2.50;;;9.90;1.00;;;;;;5011663;28;20236;-60
2021/10/24 09:40:46;;;;;;;7.27;3.00;;;10.00;1.00;;;;;;5011816;28;20281;-60
2021/10/24 09:43:18;;;;;;;4.57;2.80;;;10.10;1.00;;;;;;5011839;28;20263;-60
2021/10/24 09:45:46;;;;;;;4.70;2.40;;;10.20;1.00;;;;;;5011836;28;20211;-61
2021/10/24 09:48:14;;;;;;;5.83;2.60;;;10.30;1.00;;;;;;5011867;28;20281;-59
2021/10/24 09:50:46;;;;;;;6.07;2.20;;;10.30;1.00;;;;;;5012000;28;20223;-59
2021/10/24 09:53:17;;;;;;;4.40;2.60;;;10.40;1.00;;;;;;5011722;28;20331;-57
2021/10/24 09:55:45;;;;;;;7.47;2.80;;;10.40;1.00;;;;;;5011474;28;20218;-59
2021/10/24 09:58:13;;;;;;;5.10;2.70;;;10.50;1.00;;;;;;5012139;28;20587;-60
2021/10/24 10:00:41;;;;;;;5.73;2.63;;;10.70;1.00;;;;;;5011601;28;20235;-60
2021/10/24 10:03:09;;;;;;;3.53;2.30;;;10.70;1.00;;;;;;5011744;28;20214;-60
2021/10/24 10:05:37;;;;;;;6.30;2.33;;;10.70;1.00;;;;;;5011980;28;20210;-60
2021/10/24 10:08:05;;;;;;;4.10;2.73;;;10.70;1.00;;;;;;5014853;28;20207;-59
2021/10/24 10:10:36;;;;;;;5.20;2.90;;;10.70;1.00;;;;;;5015099;28;20266;-60
2021/10/24 10:13:09;;;;;;;4.37;2.53;;;10.90;1.00;;;;;;5015353;28;20207;-57
2021/10/24 10:15:39;;;;;;;5.90;2.63;;;10.90;1.00;;;;;;5014698;28;20211;-59
2021/10/24 10:18:06;;;;;;;5.17;2.53;;;11.00;1.00;;;;;;5015366;28;20246;-60
2021/10/24 10:20:35;;;;;;;4.30;2.50;;;11.10;1.00;;;;;;5015071;28;20223;-54
2021/10/24 10:23:05;;;;;;;7.13;2.57;;;11.20;1.00;;;;;;5015058;28;20325;-58
2021/10/24 10:25:35;;;;;;;7.27;2.53;;;11.20;1.00;;;;;;5014862;28;20203;-60
2021/10/24 10:28:02;;;;;;;5.63;2.17;;;11.30;1.00;;;;;;5014856;28;20627;-57
2021/10/24 10:30:35;;;;;;;6.70;2.40;;;11.50;1.00;;;;;;5014724;28;20203;-58
2021/10/24 10:33:04;;;;;;;5.93;2.87;;;11.50;1.00;;;;;;5014737;28;20265;-58
2021/10/24 10:35:31;;;;;;;4.10;2.50;;;11.60;1.00;;;;;;5014608;28;20218;-58
2021/10/24 10:38:01;;;;;;;4.13;2.50;;;11.70;1.00;;;;;;5014824;28;20258;-60
2021/10/24 10:40:30;;;;;;;4.93;2.40;;;11.80;1.00;;;;;;5014700;28;20223;-58
2021/10/24 10:43:03;;;;;;;4.40;2.10;;;12.00;1.00;;;;;;5014494;28;20279;-56
2021/10/24 10:45:42;;;;;;;5.13;2.23;;;12.10;1.00;;;;;;5014037;28;20679;-57
2021/10/24 10:48:22;;;;;;;4.83;2.00;;;12.20;1.00;;;;;;5014666;28;20222;-56
2021/10/24 10:50:53;;;;;;;5.00;2.40;;;12.30;1.00;;;;;;5014404;28;20315;-60
2021/10/24 10:54:02;;;;;;;3.20;2.20;;;12.30;1.00;;;;;;5014492;28;20672;-55
2021/10/24 10:56:43;;;;;;;5.13;2.30;;;12.40;1.00;;;;;;5014272;28;20614;-60
2021/10/24 10:59:28;;;;;;;3.60;1.70;;;12.50;1.00;;;;;;5014332;28;20219;-58
2021/10/24 11:01:55;;;;;;;2.77;1.73;;;12.60;1.00;;;;;;5014402;28;20277;-60
2021/10/24 11:04:22;;;;;;;5.47;2.50;;;12.70;1.00;;;;;;5013852;28;20203;-57
2021/10/24 11:06:57;;;;;;;3.97;1.80;;;12.70;1.00;;;;;;5013531;28;20208;-58
2021/10/24 11:09:47;;;;;;;7.03;2.00;;;12.90;99.90;;;;;;5014248;28;20210;-58
2021/10/24 11:12:41;;;;;;;3.23;1.93;;;12.90;99.90;;;;;;5013942;28;20234;-57
2021/10/24 11:15:31;;;;;;;5.53;2.20;;;13.00;99.90;;;;;;5013908;28;20281;-56
2021/10/24 11:18:01;;;;;;;5.10;2.37;;;13.10;1.00;;;;;;5013852;28;20214;-60
2021/10/24 11:20:47;;;;;;;2.70;1.73;;;13.20;1.00;;;;;;5013708;28;20314;-58
2021/10/24 11:23:18;;;;;;;3.63;2.17;;;13.20;99.90;;;;;;5013245;28;20237;-57
2021/10/24 11:25:46;;;;;;;3.87;1.90;;;13.20;99.90;;;;;;5013496;28;20800;-58
2021/10/24 11:28:16;;;;;;;3.50;1.93;;;13.30;1.00;;;;;;5013858;28;20207;-56
2021/10/24 11:30:45;;;;;;;3.73;1.83;;;13.40;99.90;;;;;;5013727;28;20223;-61
2021/10/24 11:33:13;;;;;;;5.07;1.83;;;13.50;99.90;;;;;;5013786;28;20214;-59
2021/10/24 11:35:42;;;;;;;5.47;1.90;;;13.50;99.90;;;;;;5013131;28;20203;-59
2021/10/24 11:38:14;;;;;;;2.37;1.50;;;13.60;99.90;;;;;;5013692;28;20617;-58
2021/10/24 11:40:43;;;;;;;5.87;1.57;;;13.70;99.90;;;;;;5013385;28;20285;-60
2021/10/24 11:43:15;;;;;;;2.30;1.40;;;13.80;99.90;;;;;;5013616;28;20249;-61
2021/10/24 11:45:45;;;;;;;3.87;1.63;;;13.90;99.90;;;;;;5012987;28;20203;-60
2021/10/24 11:48:17;;;;;;;3.40;1.40;;;13.90;99.90;;;;;;5013318;28;20214;-58
2021/10/24 11:51:00;;;;;;;2.37;1.40;;;14.00;99.90;;;;;;5013362;28;20219;-59
2021/10/24 11:53:32;;;;;;;5.13;2.80;;;14.10;99.90;;;;;;5013371;28;20220;-60
2021/10/24 11:56:01;;;;;;;4.77;2.13;;;14.20;99.90;;;;;;5012795;28;20207;-60
2021/10/24 11:58:42;;;;;;;2.90;1.60;;;14.20;99.90;;;;;;5012989;28;20210;-58
2021/10/24 12:01:12;;;;;;;4.37;1.50;;;14.20;99.90;;;;;;5013067;28;20610;-60
2021/10/24 12:03:43;;;;;;;3.87;1.87;;;14.30;99.90;;;;;;5013422;28;20242;-60
2021/10/24 12:06:12;;;;;;;3.07;1.67;;;14.40;99.90;;;;;;5005978;28;20207;-60
2021/10/24 12:08:50;;;;;;;3.90;1.43;;;14.50;99.90;;;;;;5012610;28;20206;-60
2021/10/24 12:11:20;;;;;;;3.87;1.60;;;14.50;99.90;;;;;;5012422;28;20227;-61
2021/10/24 12:13:48;;;;;;;2.23;1.47;;;14.50;99.90;;;;;;5012599;28;20666;-60
2021/10/24 12:16:32;;;;;;;3.37;1.40;;;14.60;99.90;;;;;;5012046;28;20219;-58
2021/10/24 12:19:19;;;;;;;3.50;1.33;;;14.70;99.90;;;;;;5012882;28;20217;-60
2021/10/24 12:22:01;;;;;;;2.87;1.20;;;14.60;99.90;;;;;;5012606;28;20715;-60
2021/10/24 12:24:32;;;;;;;3.83;1.40;;;14.60;99.90;;;;;;5012339;28;20269;-62
2021/10/24 12:27:07;;;;;;;2.87;1.73;;;14.60;99.90;;;;;;5012393;28;20211;-61
2021/10/24 12:29:34;;;;;;;3.00;1.47;;;14.60;99.90;;;;;;5011635;28;20225;-61
2021/10/24 12:32:12;;;;;;;3.83;1.80;;;14.70;99.90;;;;;;5012517;28;20227;-61
2021/10/24 12:34:40;;;;;;;2.33;1.40;;;14.70;99.90;;;;;;5011745;28;20208;-64
2021/10/24 12:37:17;;;;;;;3.20;1.40;;;14.80;99.90;;;;;;5012245;28;20211;-64
2021/10/24 12:39:44;;;;;;;3.43;1.70;;;14.80;99.90;;;;;;5012455;28;20249;-64
2021/10/24 12:42:20;;;;;;;2.97;1.50;;;14.90;99.90;;;;;;5012150;28;20615;-63
2021/10/24 12:44:47;;;;;;;2.03;1.40;;;14.90;99.90;;;;;;5012156;28;20266;-61
2021/10/24 12:47:17;;;;;;;4.00;1.90;;;14.90;99.90;;;;;;5012297;28;20297;-61
2021/10/24 12:49:54;;;;;;;2.77;1.20;;;15.00;99.90;;;;;;5029132;28;20590;-59
2021/10/24 12:52:21;;;;;;;3.10;1.77;;;15.00;99.90;;;;;;5031620;28;20222;-60
2021/10/24 12:54:58;;;;;;;3.30;1.67;;;15.00;99.90;;;;;;5030951;28;20210;-61
2021/10/24 12:57:24;;;;;;;4.17;1.63;;;15.10;99.90;;;;;;5031275;28;20733;-62
2021/10/24 12:59:51;;;;;;;4.53;1.70;;;15.20;99.90;;;;;;5031411;28;20233;-61
2021/10/24 13:02:19;;;;;;;1.80;1.40;;;15.20;99.90;;;;;;5031078;28;20312;-63